This is the latest recevied weather packets stored in our database for station/object W8RD. If no packets are shown the sender has not sent any weather packets the latest 1 day(s).
| Time | Temp. | Humidity | Pressure | Rain* | Wind** | Luminosity | Snow |
|---|---|---|---|---|---|---|---|
| 1778075098 | 26.67° C | 74% | 1018 hPa | 0 mm | - | 101 W/m² | - |
| 1778073897 | 26.11° C | 77% | 1017.9 hPa | 0 mm | - | 53 W/m² | - |
| 1778073297 | 25.56° C | 79% | 1017.9 hPa | 0 mm | - | 43 W/m² | - |
| 1778072092 | 24.44° C | 82% | 1018 hPa | 0 mm | - | 33 W/m² | - |
| 1778071487 | 24.44° C | 83% | 1017.7 hPa | 0 mm | - | 37 W/m² | - |
| 1778069072 | 23.33° C | 87% | 1017.6 hPa | 0 mm | - | 25 W/m² | - |
| 1778065448 | 21.67° C | 90% | 1016.9 hPa | 0 mm | - | 6 W/m² | - |
| 1778060617 | 22.22° C | 86% | 1016.7 hPa | 0 mm | - | 0 W/m² | - |
| 1778060017 | 22.22° C | 85% | 1016.5 hPa | 0 mm | - | 0 W/m² | - |
| 1778059413 | 22.22° C | 84% | 1016.3 hPa | 0 mm | - | 0 W/m² | - |
| 1778058214 | 22.22° C | 83% | 1016.2 hPa | 0 mm | - | 0 W/m² | - |
| 1778057012 | 22.78° C | 82% | 1016.4 hPa | 0 mm | - | 0 W/m² | - |
| 1778056406 | 22.78° C | 82% | 1016.4 hPa | 0 mm | - | 0 W/m² | - |
| 1778055200 | 22.78° C | 81% | 1016.5 hPa | 0 mm | - | 0 W/m² | - |
| 1778054599 | 22.78° C | 80% | 1016.4 hPa | 0 mm | - | 0 W/m² | - |
| 1778053994 | 22.78° C | 80% | 1016.4 hPa | 0 mm | - | 0 W/m² | - |
| 1778053394 | 22.78° C | 79% | 1016.3 hPa | 0 mm | - | 0 W/m² | - |
| 1778052189 | 22.78° C | 79% | 1016.4 hPa | 0 mm | - | 0 W/m² | - |
| 1778050985 | 22.78° C | 79% | 1016.8 hPa | 0 mm | - | 0 W/m² | - |
| 1778048568 | 22.78° C | 75% | 1017 hPa | 0 mm | - | 0 W/m² | - |
| 1778047967 | 23.33° C | 74% | 1017.1 hPa | 0 mm | - | 0 W/m² | - |
| 1778046761 | 23.33° C | 72% | 1017.4 hPa | 0 mm | - | 0 W/m² | - |
| 1778045557 | 23.33° C | 71% | 1017.2 hPa | 0 mm | - | 0 W/m² | - |
| 1778044953 | 23.33° C | 72% | 1017.3 hPa | 0 mm | - | 0 W/m² | - |
| 1778043747 | 21.67° C | 82% | 1017.3 hPa | 0 mm | - | 0 W/m² | - |
* Rain latest hour (hover to see other rain measurements)
** Current wind speed in m/s (hover to see current wind gust speed)